createdAt,value
2023-03-17T00:01:35.054Z,3.50
2023-03-17T00:04:05.853Z,3.90
2023-03-17T00:06:36.749Z,3.80
2023-03-17T00:09:09.191Z,4.22
2023-03-17T00:11:39.617Z,4.40
2023-03-17T00:14:10.699Z,4.30
2023-03-17T00:16:44.457Z,4.15
2023-03-17T00:19:22.181Z,4.68
2023-03-17T00:21:53.280Z,4.30
2023-03-17T00:24:23.905Z,3.80
2023-03-17T00:26:54.833Z,4.53
2023-03-17T00:29:27.043Z,6.10
2023-03-17T00:31:59.937Z,5.85
2023-03-17T00:34:31.321Z,5.82
2023-03-17T00:37:03.626Z,6.20
2023-03-17T00:39:34.868Z,5.78
2023-03-17T00:42:09.266Z,5.88
2023-03-17T00:44:42.276Z,6.45
2023-03-17T00:47:14.754Z,6.75
2023-03-17T00:49:45.385Z,5.90
2023-03-17T00:52:15.792Z,9.32
2023-03-17T00:54:46.837Z,11.23
2023-03-17T00:57:18.024Z,12.55
2023-03-17T00:59:48.509Z,9.73
2023-03-17T01:02:22.686Z,8.27
2023-03-17T01:05:05.566Z,8.35
2023-03-17T01:07:38.726Z,7.88
2023-03-17T01:10:20.734Z,7.28
2023-03-17T01:12:54.040Z,6.82
2023-03-17T01:15:25.332Z,6.68
2023-03-17T01:17:55.786Z,5.93
2023-03-17T01:20:30.890Z,6.72
2023-03-17T01:23:03.158Z,6.70
2023-03-17T01:25:35.318Z,6.22
2023-03-17T01:28:06.172Z,5.53
2023-03-17T01:30:41.851Z,6.93
2023-03-17T01:33:14.740Z,6.35
2023-03-17T01:35:47.372Z,7.03
2023-03-17T01:38:17.830Z,6.45
2023-03-17T01:40:51.665Z,6.43
2023-03-17T01:43:32.204Z,6.38
2023-03-17T01:46:36.159Z,5.55
2023-03-17T01:49:25.451Z,5.78
2023-03-17T01:51:55.791Z,5.85
2023-03-17T01:54:48.131Z,5.95
2023-03-17T01:57:18.500Z,6.28
2023-03-17T01:59:57.721Z,5.68
2023-03-17T02:02:36.165Z,5.43
2023-03-17T02:05:11.215Z,5.93
2023-03-17T02:07:43.268Z,6.05
2023-03-17T02:10:16.122Z,5.72
2023-03-17T02:12:49.066Z,5.93
2023-03-17T02:15:19.447Z,5.95
2023-03-17T02:17:50.186Z,5.47
2023-03-17T02:20:20.491Z,5.78
2023-03-17T02:22:54.381Z,6.30
2023-03-17T02:25:27.046Z,6.03
2023-03-17T02:28:03.424Z,4.97
2023-03-17T02:30:35.154Z,5.50
2023-03-17T02:33:06.097Z,5.22
2023-03-17T02:35:36.966Z,5.32
2023-03-17T02:38:08.202Z,5.40
2023-03-17T02:40:38.664Z,5.50
2023-03-17T02:43:09.167Z,5.22
2023-03-17T02:45:39.554Z,4.70
2023-03-17T02:48:10.720Z,5.00
2023-03-17T02:50:41.384Z,5.72
2023-03-17T02:53:12.049Z,5.03
2023-03-17T02:55:42.788Z,5.55
2023-03-17T02:58:13.238Z,4.75
2023-03-17T03:00:44.098Z,5.80
2023-03-17T03:03:14.534Z,4.30
2023-03-17T03:05:44.927Z,5.18
2023-03-17T03:08:15.963Z,5.13
2023-03-17T03:10:46.224Z,5.38
2023-03-17T03:13:17.301Z,5.15
2023-03-17T03:15:47.814Z,5.30
2023-03-17T03:18:18.261Z,5.35
2023-03-17T03:20:49.622Z,4.90
2023-03-17T03:23:20.282Z,5.43
2023-03-17T03:25:50.667Z,4.60
2023-03-17T03:28:21.552Z,4.60
2023-03-17T03:30:52.109Z,5.03
2023-03-17T03:33:23.172Z,5.40
2023-03-17T03:35:54.423Z,5.45
2023-03-17T03:38:24.845Z,5.07
2023-03-17T03:40:56.068Z,4.60
2023-03-17T03:43:27.296Z,4.20
2023-03-17T03:45:57.732Z,4.30
2023-03-17T03:48:28.281Z,5.00
2023-03-17T03:51:01.032Z,5.32
2023-03-17T03:53:32.651Z,5.05
2023-03-17T03:56:03.474Z,4.93
2023-03-17T03:58:33.919Z,4.63
2023-03-17T04:01:09.040Z,4.63
2023-03-17T04:03:40.961Z,4.60
2023-03-17T04:06:11.456Z,5.60
2023-03-17T04:08:42.106Z,4.38
2023-03-17T04:11:12.588Z,4.22
2023-03-17T04:13:43.115Z,3.72
2023-03-17T04:16:14.138Z,3.42
2023-03-17T04:18:44.651Z,3.40
2023-03-17T04:21:15.378Z,2.92
2023-03-17T04:23:45.907Z,6.45
2023-03-17T04:26:18.936Z,5.53
2023-03-17T04:28:49.854Z,4.63
2023-03-17T04:31:20.289Z,3.97
2023-03-17T04:33:50.876Z,12.98
2023-03-17T04:36:24.687Z,6.32
2023-03-17T04:38:55.419Z,6.30
2023-03-17T04:41:26.198Z,5.15
2023-03-17T04:43:56.516Z,4.32
2023-03-17T04:46:27.259Z,6.72
2023-03-17T04:48:57.926Z,6.15
2023-03-17T04:51:28.769Z,5.97
2023-03-17T04:53:59.447Z,4.88
2023-03-17T04:56:31.703Z,7.53
2023-03-17T04:59:02.802Z,5.78
2023-03-17T05:01:33.960Z,5.78
2023-03-17T05:04:04.282Z,3.67
2023-03-17T05:06:34.835Z,3.20
2023-03-17T05:09:06.124Z,3.55
2023-03-17T05:11:37.775Z,2.63
2023-03-17T05:14:08.163Z,2.65
2023-03-17T05:16:38.576Z,3.08
2023-03-17T05:19:09.219Z,2.60
2023-03-17T05:21:39.504Z,2.42
2023-03-17T05:24:10.487Z,2.05
2023-03-17T05:26:42.586Z,2.00
2023-03-17T05:29:12.934Z,2.20
2023-03-17T05:31:43.991Z,2.20
2023-03-17T05:34:14.649Z,2.30
2023-03-17T05:36:46.139Z,2.40
2023-03-17T05:39:16.582Z,1.92
2023-03-17T05:41:47.157Z,2.08
2023-03-17T05:44:18.014Z,1.80
2023-03-17T05:46:49.056Z,1.75
2023-03-17T05:49:20.306Z,1.85
2023-03-17T05:51:50.746Z,1.90
2023-03-17T05:54:21.399Z,1.60
2023-03-17T05:56:52.172Z,1.60
2023-03-17T05:59:23.773Z,1.92
2023-03-17T06:01:54.234Z,1.63
2023-03-17T06:04:24.405Z,4.75
2023-03-17T06:06:54.734Z,8.38
2023-03-17T06:09:25.328Z,11.48
2023-03-17T06:11:55.624Z,6.55
2023-03-17T06:14:27.123Z,4.88
2023-03-17T06:16:57.745Z,4.30
2023-03-17T06:19:28.227Z,3.25
2023-03-17T06:21:58.697Z,2.78
2023-03-17T06:24:29.115Z,2.70
2023-03-17T06:26:59.446Z,2.53
2023-03-17T06:29:31.643Z,2.47
2023-03-17T06:32:18.933Z,2.00
2023-03-17T06:34:50.163Z,2.70
2023-03-17T06:37:20.897Z,2.00
2023-03-17T06:39:51.498Z,2.00
2023-03-17T06:42:22.656Z,2.10
2023-03-17T06:44:54.200Z,1.90
2023-03-17T06:47:26.039Z,2.47
2023-03-17T06:49:59.216Z,2.17
2023-03-17T06:52:30.188Z,1.90
2023-03-17T06:55:00.677Z,1.90
2023-03-17T06:57:31.003Z,2.20
2023-03-17T07:00:01.446Z,2.75
2023-03-17T07:02:31.887Z,2.17
2023-03-17T07:05:02.896Z,4.63
2023-03-17T07:07:33.322Z,3.28
2023-03-17T07:10:04.783Z,2.85
2023-03-17T07:12:35.832Z,2.65
2023-03-17T07:15:07.412Z,2.78
2023-03-17T07:17:38.285Z,2.22
2023-03-17T07:20:09.282Z,2.20
2023-03-17T07:22:39.646Z,2.47
2023-03-17T07:25:11.281Z,2.20
2023-03-17T07:27:41.747Z,2.33
2023-03-17T07:30:14.390Z,2.30
2023-03-17T07:32:44.894Z,6.90
2023-03-17T07:35:17.647Z,5.07
2023-03-17T07:37:48.883Z,9.07
2023-03-17T07:40:20.209Z,16.58
2023-03-17T07:42:51.489Z,9.88
2023-03-17T07:45:22.061Z,17.35
2023-03-17T07:47:53.362Z,23.25
2023-03-17T07:50:24.746Z,7.40
2023-03-17T07:52:55.050Z,4.95
2023-03-17T07:55:25.808Z,4.60
2023-03-17T07:57:56.367Z,4.40
2023-03-17T08:00:28.133Z,4.05
2023-03-17T08:03:09.287Z,3.83
2023-03-17T08:05:41.239Z,3.33
2023-03-17T08:08:12.306Z,3.22
2023-03-17T08:10:42.739Z,4.10
2023-03-17T08:13:13.230Z,3.55
2023-03-17T08:15:44.369Z,3.05
2023-03-17T08:18:14.956Z,3.28
2023-03-17T08:20:46.438Z,2.63
2023-03-17T08:23:17.095Z,3.65
2023-03-17T08:25:48.267Z,3.50
2023-03-17T08:28:19.357Z,3.42
2023-03-17T08:30:50.921Z,3.47
2023-03-17T08:33:21.354Z,3.17
2023-03-17T08:35:52.329Z,3.35
2023-03-17T08:38:23.293Z,3.03
2023-03-17T08:40:53.743Z,2.97
2023-03-17T08:43:25.447Z,2.88
2023-03-17T08:46:00.702Z,3.33
2023-03-17T08:48:31.985Z,3.00
2023-03-17T08:51:02.614Z,3.55
2023-03-17T08:53:34.010Z,3.13
2023-03-17T08:56:06.267Z,3.20
2023-03-17T08:58:41.379Z,2.92
2023-03-17T09:01:15.193Z,3.42
2023-03-17T09:03:47.140Z,3.20
2023-03-17T09:06:18.121Z,2.92
2023-03-17T09:08:52.397Z,3.30
2023-03-17T09:11:25.163Z,3.20
2023-03-17T09:13:57.150Z,2.90
2023-03-17T09:16:29.980Z,4.03
2023-03-17T09:19:00.692Z,3.40
2023-03-17T09:21:31.315Z,3.20
2023-03-17T09:24:02.636Z,3.60
2023-03-17T09:26:33.494Z,3.25
2023-03-17T09:29:04.703Z,3.72
2023-03-17T09:31:38.086Z,3.20
2023-03-17T09:36:39.069Z,2.97
2023-03-17T09:39:10.324Z,2.90
2023-03-17T09:41:59.201Z,3.25
2023-03-17T09:44:50.771Z,2.97
2023-03-17T09:47:52.382Z,3.45
2023-03-17T09:50:31.001Z,2.63
2023-03-17T09:53:04.144Z,2.90
2023-03-17T09:55:36.714Z,3.08
2023-03-17T09:58:07.249Z,2.90
2023-03-17T10:00:37.418Z,3.33
2023-03-17T10:03:13.596Z,3.20
2023-03-17T10:05:44.013Z,2.95
2023-03-17T10:08:29.931Z,3.03
2023-03-17T10:11:05.215Z,3.35
2023-03-17T10:13:38.615Z,3.47
2023-03-17T10:16:13.812Z,3.55
2023-03-17T10:18:59.320Z,3.40
2023-03-17T10:21:37.204Z,3.50
2023-03-17T10:24:08.468Z,2.97
2023-03-17T10:26:58.898Z,3.03
2023-03-17T10:29:30.359Z,3.55
2023-03-17T10:32:01.093Z,3.40
2023-03-17T10:34:37.751Z,3.03
2023-03-17T10:37:14.195Z,3.40
2023-03-17T10:39:51.792Z,3.13
2023-03-17T10:42:29.320Z,2.97
2023-03-17T10:45:07.097Z,3.60
2023-03-17T10:47:41.182Z,3.63
2023-03-17T10:50:27.639Z,3.53
2023-03-17T10:53:29.350Z,3.75
2023-03-17T10:56:11.177Z,3.38
2023-03-17T10:58:51.591Z,3.42
2023-03-17T11:01:37.073Z,3.55
2023-03-17T11:04:38.452Z,3.15
2023-03-17T11:07:22.841Z,3.60
2023-03-17T11:09:59.375Z,3.42
2023-03-17T11:12:54.875Z,3.33
2023-03-17T11:15:25.622Z,3.33
2023-03-17T11:18:04.850Z,3.58
2023-03-17T11:20:52.891Z,3.78
2023-03-17T11:23:34.397Z,3.35
2023-03-17T11:26:16.436Z,3.45
2023-03-17T11:29:10.708Z,3.63
2023-03-17T11:31:49.533Z,3.50
2023-03-17T11:34:45.409Z,3.95
2023-03-17T11:37:34.626Z,3.67
2023-03-17T11:40:35.532Z,3.58
2023-03-17T11:43:38.958Z,3.80
2023-03-17T11:46:21.238Z,3.28
2023-03-17T11:49:02.206Z,3.63
2023-03-17T11:51:58.159Z,3.63
2023-03-17T11:54:48.790Z,3.15
2023-03-17T11:57:42.200Z,3.72
2023-03-17T12:00:19.496Z,3.30
2023-03-17T12:03:32.682Z,3.50
2023-03-17T12:06:10.110Z,3.63
2023-03-17T12:08:51.010Z,3.92
2023-03-17T12:11:30.487Z,4.07
2023-03-17T12:14:08.325Z,3.30
2023-03-17T12:17:16.600Z,3.88
2023-03-17T12:20:10.789Z,3.60
2023-03-17T12:22:59.471Z,3.78
2023-03-17T12:26:01.308Z,3.92
2023-03-17T12:28:40.370Z,3.58
2023-03-17T12:31:19.884Z,3.55
2023-03-17T12:34:23.151Z,3.60
2023-03-17T12:36:55.692Z,3.65
2023-03-17T12:39:33.564Z,3.70
2023-03-17T12:42:30.690Z,3.97
2023-03-17T12:45:39.126Z,3.65
2023-03-17T12:48:25.152Z,3.70
2023-03-17T12:51:19.516Z,3.53
2023-03-17T12:53:52.185Z,3.80
2023-03-17T12:56:34.361Z,3.83
2023-03-17T12:59:11.765Z,4.00
2023-03-17T13:01:48.129Z,3.65
2023-03-17T13:04:26.467Z,3.92
2023-03-17T13:07:14.355Z,4.57
2023-03-17T13:09:50.495Z,4.28
2023-03-17T13:12:42.076Z,3.60
2023-03-17T13:15:37.424Z,4.00
2023-03-17T13:18:20.007Z,3.72
2023-03-17T13:21:00.792Z,4.33
2023-03-17T13:23:45.651Z,4.05
2023-03-17T13:26:21.470Z,4.38
2023-03-17T13:28:53.639Z,4.93
2023-03-17T13:31:33.062Z,4.10
2023-03-17T13:34:19.345Z,4.28
2023-03-17T13:37:27.880Z,4.05
2023-03-17T13:40:01.263Z,4.72
2023-03-17T13:43:03.703Z,4.75
2023-03-17T13:45:46.105Z,4.70
2023-03-17T13:48:31.217Z,4.53
2023-03-17T13:51:15.194Z,4.88
2023-03-17T13:53:57.994Z,4.53
2023-03-17T13:56:43.486Z,4.40
2023-03-17T13:59:14.564Z,4.55
2023-03-17T14:01:53.919Z,4.82
2023-03-17T14:04:29.655Z,4.70
2023-03-17T14:07:08.460Z,4.30
2023-03-17T14:09:45.160Z,4.45
2023-03-17T14:12:21.841Z,4.68
2023-03-17T14:15:08.283Z,4.53
2023-03-17T14:17:49.341Z,4.28
2023-03-17T14:20:20.425Z,4.78
2023-03-17T14:22:57.710Z,5.10
2023-03-17T14:25:48.464Z,4.65
2023-03-17T14:28:21.441Z,5.15
2023-03-17T14:30:58.472Z,5.00
2023-03-17T14:33:31.368Z,5.40
2023-03-17T14:36:04.258Z,5.10
2023-03-17T14:38:37.085Z,4.93
2023-03-17T14:41:19.150Z,5.20
2023-03-17T14:43:51.437Z,5.20
2023-03-17T14:46:40.170Z,5.10
2023-03-17T14:49:22.634Z,4.97
2023-03-17T14:52:00.743Z,5.60
2023-03-17T14:54:36.765Z,5.25
2023-03-17T14:57:17.223Z,5.40
2023-03-17T15:00:18.503Z,5.30
2023-03-17T15:03:00.972Z,5.43
2023-03-17T15:05:44.818Z,5.55
2023-03-17T15:08:44.893Z,5.60
2023-03-17T15:11:25.489Z,5.32
2023-03-17T15:14:17.880Z,5.65
2023-03-17T15:16:53.257Z,5.30
2023-03-17T15:19:46.894Z,5.50
2023-03-17T15:22:29.009Z,6.13
2023-03-17T15:25:28.905Z,5.72
2023-03-17T15:27:59.990Z,5.50
2023-03-17T15:30:44.384Z,5.40
2023-03-17T15:33:31.321Z,5.68
2023-03-17T15:36:02.121Z,5.97
2023-03-17T15:38:32.545Z,6.53
2023-03-17T15:41:02.926Z,5.50
2023-03-17T15:43:33.399Z,5.60
2023-03-17T15:46:08.412Z,5.78
2023-03-17T15:48:39.611Z,5.75
2023-03-17T15:51:12.032Z,5.90
2023-03-17T15:53:42.481Z,5.82
2023-03-17T15:56:22.243Z,6.18
2023-03-17T15:58:53.984Z,5.70
2023-03-17T16:01:27.307Z,6.00
2023-03-17T16:03:58.545Z,6.93
2023-03-17T16:06:29.029Z,5.75
2023-03-17T16:08:59.685Z,6.15
2023-03-17T16:11:33.416Z,5.95
2023-03-17T16:14:04.544Z,6.82
2023-03-17T16:16:45.029Z,6.90
2023-03-17T16:19:26.415Z,6.88
2023-03-17T16:21:57.025Z,6.47
2023-03-17T16:24:29.012Z,6.90
2023-03-17T16:26:59.437Z,6.45
2023-03-17T16:29:29.715Z,6.30
2023-03-17T16:32:00.257Z,6.47
2023-03-17T16:34:30.626Z,7.10
2023-03-17T16:37:01.028Z,6.72
2023-03-17T16:39:33.677Z,6.80
2023-03-17T16:42:05.646Z,6.70
2023-03-17T16:44:36.867Z,6.55
2023-03-17T16:47:07.660Z,6.85
2023-03-17T16:49:38.089Z,6.55
2023-03-17T16:52:08.573Z,7.03
2023-03-17T16:54:39.008Z,7.03
2023-03-17T16:57:11.707Z,7.00
2023-03-17T16:59:42.665Z,6.82
2023-03-17T17:02:18.368Z,7.00
2023-03-17T17:04:48.788Z,6.93
2023-03-17T17:07:19.184Z,6.75
2023-03-17T17:09:49.609Z,6.50
2023-03-17T17:12:19.821Z,7.30
2023-03-17T17:14:50.144Z,6.55
2023-03-17T17:17:20.353Z,7.03
2023-03-17T17:19:50.793Z,7.03
2023-03-17T17:22:21.134Z,7.63
2023-03-17T17:24:51.453Z,6.80
2023-03-17T17:27:21.994Z,7.20
2023-03-17T17:29:52.228Z,6.72
2023-03-17T17:32:25.288Z,7.32
2023-03-17T17:34:55.774Z,7.43
2023-03-17T17:37:26.321Z,7.50
2023-03-17T17:39:57.046Z,7.57
2023-03-17T17:42:27.814Z,6.60
2023-03-17T17:44:58.246Z,7.45
2023-03-17T17:47:32.312Z,7.70
2023-03-17T17:50:02.815Z,7.78
2023-03-17T17:52:33.309Z,7.55
2023-03-17T17:55:03.790Z,7.10
2023-03-17T17:57:34.155Z,7.50
2023-03-17T18:00:07.920Z,7.05
2023-03-17T18:02:41.181Z,8.25
2023-03-17T18:05:12.690Z,7.65
2023-03-17T18:07:43.452Z,8.27
2023-03-17T18:10:23.980Z,7.53
2023-03-17T18:12:55.118Z,8.38
2023-03-17T18:15:27.179Z,7.47
2023-03-17T18:17:57.921Z,8.52
2023-03-17T18:20:28.830Z,8.68
2023-03-17T18:22:59.511Z,8.30
2023-03-17T18:25:31.292Z,8.60
2023-03-17T18:28:02.960Z,8.68
2023-03-17T18:30:36.153Z,9.10
2023-03-17T18:33:18.408Z,8.75
2023-03-17T18:35:50.660Z,9.30
2023-03-17T18:38:21.184Z,8.47
2023-03-17T18:40:51.825Z,9.23
2023-03-17T18:43:22.091Z,9.40
2023-03-17T18:45:52.708Z,9.02
2023-03-17T18:48:23.321Z,10.02
2023-03-17T18:50:53.637Z,9.40
2023-03-17T18:53:24.353Z,9.38
2023-03-17T18:55:54.736Z,10.15
2023-03-17T18:58:25.467Z,9.60
2023-03-17T19:00:59.498Z,10.30
2023-03-17T19:03:31.245Z,9.48
2023-03-17T19:06:11.995Z,10.18
2023-03-17T19:08:42.967Z,9.70
2023-03-17T19:11:15.667Z,9.77
2023-03-17T19:13:47.171Z,9.55
2023-03-17T19:16:18.202Z,10.20
2023-03-17T19:18:48.575Z,10.40
2023-03-17T19:21:18.965Z,10.00
2023-03-17T19:23:49.631Z,10.93
2023-03-17T19:26:21.711Z,10.63
2023-03-17T19:28:52.299Z,10.48
2023-03-17T19:31:22.755Z,10.43
2023-03-17T19:33:53.269Z,10.32
2023-03-17T19:36:23.595Z,10.55
2023-03-17T19:38:53.971Z,9.93
2023-03-17T19:41:24.250Z,10.85
2023-03-17T19:43:54.646Z,10.98
2023-03-17T19:46:25.725Z,9.90
2023-03-17T19:48:58.115Z,10.02
2023-03-17T19:51:29.172Z,10.77
2023-03-17T19:53:59.509Z,11.82
2023-03-17T19:56:29.970Z,10.82
2023-03-17T19:59:00.882Z,11.13
2023-03-17T20:01:33.528Z,11.10
2023-03-17T20:04:03.858Z,12.02
2023-03-17T20:06:35.148Z,11.93
2023-03-17T20:09:05.908Z,11.13
2023-03-17T20:11:36.373Z,11.32
2023-03-17T20:14:07.688Z,11.20
2023-03-17T20:16:39.297Z,11.90
2023-03-17T20:19:10.679Z,11.38
2023-03-17T20:21:41.777Z,11.90
2023-03-17T20:24:16.078Z,11.85
2023-03-17T20:26:47.432Z,12.95
2023-03-17T20:29:19.196Z,12.73
2023-03-17T20:31:49.647Z,12.23
2023-03-17T20:34:20.109Z,12.32
2023-03-17T20:36:50.806Z,11.25
2023-03-17T20:39:23.811Z,12.20
2023-03-17T20:44:25.583Z,12.00
2023-03-17T20:46:56.438Z,12.35
2023-03-17T20:49:26.826Z,12.35
2023-03-17T20:51:57.858Z,13.02
2023-03-17T20:54:28.540Z,13.25
2023-03-17T20:56:58.946Z,12.95
2023-03-17T20:59:29.996Z,13.50
2023-03-17T21:02:00.725Z,13.43
2023-03-17T21:04:31.694Z,13.60
2023-03-17T21:07:02.142Z,13.07
2023-03-17T21:09:32.582Z,12.43
2023-03-17T21:12:02.799Z,13.70
2023-03-17T21:14:33.598Z,12.35
2023-03-17T21:17:05.373Z,13.60
2023-03-17T21:19:37.557Z,13.07
2023-03-17T21:22:08.439Z,13.00
2023-03-17T21:24:41.365Z,12.95
2023-03-17T21:27:12.811Z,12.90
2023-03-17T21:29:44.022Z,13.40
2023-03-17T21:32:14.376Z,14.02
2023-03-17T21:34:45.499Z,13.70
2023-03-17T21:37:19.798Z,13.98
2023-03-17T21:39:50.393Z,13.52
2023-03-17T21:42:21.140Z,12.57
2023-03-17T21:44:53.616Z,12.93
2023-03-17T21:47:24.062Z,12.48
2023-03-17T21:49:54.272Z,13.38
2023-03-17T21:52:24.723Z,12.80
2023-03-17T21:54:56.288Z,13.80
2023-03-17T21:57:29.075Z,14.05
2023-03-17T21:59:59.528Z,13.52
2023-03-17T22:02:30.047Z,12.80
2023-03-17T22:05:00.949Z,14.00
2023-03-17T22:07:31.589Z,12.80
2023-03-17T22:10:02.717Z,13.32
2023-03-17T22:12:33.071Z,14.15
2023-03-17T22:15:03.855Z,13.35
2023-03-17T22:17:34.658Z,13.38
2023-03-17T22:20:08.189Z,14.40
2023-03-17T22:22:38.626Z,13.30
2023-03-17T22:25:09.968Z,13.43
2023-03-17T22:27:40.444Z,13.48
2023-03-17T22:30:12.500Z,13.65
2023-03-17T22:32:43.104Z,13.35
2023-03-17T22:35:14.725Z,13.40
2023-03-17T22:37:45.115Z,13.18
2023-03-17T22:40:16.336Z,13.15
2023-03-17T22:42:46.650Z,13.05
2023-03-17T22:45:17.967Z,13.10
2023-03-17T22:47:48.484Z,13.05
2023-03-17T22:50:20.270Z,13.50
2023-03-17T22:52:50.980Z,13.73
2023-03-17T22:55:21.960Z,13.25
2023-03-17T22:57:53.102Z,13.20
2023-03-17T23:00:24.475Z,12.65
2023-03-17T23:02:55.561Z,13.05
2023-03-17T23:05:27.220Z,12.73
2023-03-17T23:07:57.682Z,12.95
2023-03-17T23:10:28.927Z,13.43
2023-03-17T23:12:59.300Z,13.30
2023-03-17T23:15:29.652Z,12.77
2023-03-17T23:18:00.253Z,12.02
2023-03-17T23:20:30.833Z,13.38
2023-03-17T23:23:01.580Z,12.63
2023-03-17T23:25:32.492Z,12.05
2023-03-17T23:28:03.142Z,12.05
2023-03-17T23:30:34.422Z,14.32
2023-03-17T23:33:06.269Z,14.18
2023-03-17T23:35:37.425Z,13.20
2023-03-17T23:38:10.160Z,13.13
2023-03-17T23:40:41.291Z,13.20
2023-03-17T23:43:11.784Z,13.10
2023-03-17T23:45:43.141Z,12.93
2023-03-17T23:48:14.269Z,12.60
2023-03-17T23:50:45.679Z,13.23
2023-03-17T23:53:16.121Z,12.32
2023-03-17T23:55:46.944Z,12.45
2023-03-17T23:58:18.116Z,12.60
